Morton, Pennsylvania
Current Conditions -  °F | °C
As of 3:54 PM on Tuesday 27 Jan 2015 (Local Time) from KPHL Reporting Station
Broken Clouds Broken Clouds  
Wind Chill: -6°   Ceiling: 14000
Heat Index:   Visibility: 10mi
Dew Point: -12°   Wind: 22mph
Humidity: 38%   Direction: 320°NW
Pressure: 29.72"   Gusts: 25mph
Location:  39.91°N, 75.32°W
Report Text: KPHL 272054Z 32019G22KT 10SM FEW055 BKN140 01/M12 A2972 RMK AO2 SLP063 T00111117 55001 $
Loading
Personal Weather Stations






























Interactive Weather Map New forecast layout! Learn more

10-Day Weather Forecast

Advertisements
Track Severe Weather on mobile